createdAt,value
2023-04-27T00:00:35.176Z,76.40
2023-04-27T00:01:35.150Z,76.67
2023-04-27T00:02:35.249Z,76.29
2023-04-27T00:03:35.240Z,76.36
2023-04-27T00:04:35.231Z,76.46
2023-04-27T00:05:35.188Z,76.36
2023-04-27T00:06:35.127Z,76.26
2023-04-27T00:07:35.096Z,76.26
2023-04-27T00:08:35.096Z,76.81
2023-04-27T00:09:35.101Z,76.05
2023-04-27T00:10:35.647Z,76.26
2023-04-27T00:11:35.066Z,76.81
2023-04-27T00:12:35.053Z,76.19
2023-04-27T00:13:35.046Z,77.22
2023-04-27T00:14:35.038Z,76.71
2023-04-27T00:15:35.037Z,76.05
2023-04-27T00:16:35.115Z,75.84
2023-04-27T00:17:36.059Z,76.78
2023-04-27T00:18:35.007Z,76.50
2023-04-27T00:19:35.008Z,76.05
2023-04-27T00:20:34.984Z,76.29
2023-04-27T00:22:35.131Z,77.01
2023-04-27T00:23:35.108Z,77.19
2023-04-27T00:24:35.103Z,77.43
2023-04-27T00:25:35.102Z,77.19
2023-04-27T00:26:35.088Z,77.33
2023-04-27T00:27:36.196Z,77.74
2023-04-27T00:28:36.179Z,77.60
2023-04-27T00:29:36.155Z,77.84
2023-04-27T00:30:36.217Z,77.33
2023-04-27T00:31:36.191Z,77.33
2023-04-27T00:32:36.161Z,77.50
2023-04-27T00:33:36.126Z,77.43
2023-04-27T00:34:36.111Z,77.22
2023-04-27T00:35:36.926Z,77.12
2023-04-27T00:36:36.104Z,77.33
2023-04-27T00:37:36.095Z,77.53
2023-04-27T00:38:36.082Z,77.43
2023-04-27T00:39:36.763Z,77.53
2023-04-27T00:40:36.090Z,77.43
2023-04-27T00:41:36.049Z,77.39
2023-04-27T00:42:36.059Z,77.19
2023-04-27T00:43:36.032Z,77.01
2023-04-27T00:44:36.106Z,77.22
2023-04-27T00:45:36.032Z,77.01
2023-04-27T00:46:36.019Z,76.98
2023-04-27T00:47:36.065Z,77.09
2023-04-27T00:48:35.996Z,77.29
2023-04-27T00:49:35.992Z,77.09
2023-04-27T00:50:35.986Z,77.22
2023-04-27T00:51:35.967Z,77.22
2023-04-27T00:52:35.977Z,76.67
2023-04-27T00:53:35.960Z,75.95
2023-04-27T00:54:35.952Z,75.95
2023-04-27T00:55:35.940Z,75.98
2023-04-27T00:56:36.861Z,76.78
2023-04-27T00:57:35.927Z,76.57
2023-04-27T00:58:36.767Z,75.95
2023-04-27T00:59:35.909Z,76.05
2023-04-27T01:00:35.906Z,76.26
2023-04-27T01:01:35.973Z,76.26
2023-04-27T01:02:36.058Z,76.36
2023-04-27T01:03:36.038Z,76.57
2023-04-27T01:04:36.002Z,75.32
2023-04-27T01:05:35.876Z,75.40
2023-04-27T01:06:35.851Z,74.91
2023-04-27T01:07:35.850Z,74.91
2023-04-27T01:08:35.843Z,74.91
2023-04-27T01:09:35.847Z,74.60
2023-04-27T01:10:35.834Z,74.91
2023-04-27T01:11:35.817Z,74.74
2023-04-27T01:12:35.807Z,74.71
2023-04-27T01:13:35.799Z,74.71
2023-04-27T01:14:35.794Z,74.84
2023-04-27T01:15:35.802Z,75.12
2023-04-27T01:16:35.831Z,74.71
2023-04-27T01:17:35.868Z,74.91
2023-04-27T01:18:35.781Z,74.29
2023-04-27T01:19:35.753Z,74.40
2023-04-27T01:20:35.784Z,74.40
2023-04-27T01:21:35.750Z,73.98
2023-04-27T01:22:35.733Z,74.50
2023-04-27T01:23:35.740Z,74.19
2023-04-27T01:24:35.718Z,73.88
2023-04-27T01:25:35.701Z,74.19
2023-04-27T01:26:35.695Z,74.19
2023-04-27T01:27:35.685Z,74.19
2023-04-27T01:28:35.682Z,75.02
2023-04-27T01:29:35.678Z,75.67
2023-04-27T01:30:35.662Z,75.57
2023-04-27T01:31:35.753Z,76.19
2023-04-27T01:32:35.683Z,76.50
2023-04-27T01:33:35.646Z,76.61
2023-04-27T01:34:35.642Z,76.61
2023-04-27T01:35:35.621Z,76.40
2023-04-27T01:36:35.619Z,77.12
2023-04-27T01:37:35.699Z,77.12
2023-04-27T01:38:35.593Z,77.64
2023-04-27T01:39:35.600Z,77.91
2023-04-27T01:40:35.584Z,77.74
2023-04-27T01:41:35.585Z,77.84
2023-04-27T01:42:35.591Z,78.16
2023-04-27T01:43:35.560Z,77.84
2023-04-27T01:44:35.559Z,77.70
2023-04-27T01:45:35.543Z,78.05
2023-04-27T01:46:36.406Z,77.53
2023-04-27T01:47:35.613Z,78.22
2023-04-27T01:48:35.520Z,78.05
2023-04-27T01:49:35.528Z,77.95
2023-04-27T01:50:35.515Z,78.22
2023-04-27T01:51:35.510Z,77.70
2023-04-27T01:52:35.495Z,77.81
2023-04-27T01:53:35.494Z,77.95
2023-04-27T01:54:35.480Z,77.91
2023-04-27T01:55:35.468Z,78.05
2023-04-27T01:56:35.458Z,77.39
2023-04-27T01:57:35.504Z,77.64
2023-04-27T01:58:35.455Z,77.74
2023-04-27T01:59:35.437Z,77.74
2023-04-27T02:00:36.432Z,77.53
2023-04-27T02:01:35.507Z,77.53
2023-04-27T02:02:35.517Z,77.95
2023-04-27T02:03:35.505Z,78.57
2023-04-27T02:04:35.491Z,78.47
2023-04-27T02:05:35.407Z,77.84
2023-04-27T02:06:35.388Z,77.53
2023-04-27T02:07:35.377Z,78.36
2023-04-27T02:08:35.414Z,78.88
2023-04-27T02:09:35.372Z,78.26
2023-04-27T02:10:35.377Z,78.81
2023-04-27T02:11:35.372Z,79.23
2023-04-27T02:12:35.339Z,79.54
2023-04-27T02:13:35.325Z,79.64
2023-04-27T02:14:35.337Z,78.92
2023-04-27T02:15:35.320Z,79.13
2023-04-27T02:16:35.435Z,79.54
2023-04-27T02:17:35.395Z,79.44
2023-04-27T02:18:35.312Z,80.19
2023-04-27T02:19:35.303Z,80.47
2023-04-27T02:20:35.280Z,80.36
2023-04-27T02:21:35.288Z,80.16
2023-04-27T02:22:35.277Z,79.85
2023-04-27T02:23:35.263Z,79.95
2023-04-27T02:24:35.243Z,79.44
2023-04-27T02:25:35.234Z,79.64
2023-04-27T02:26:35.277Z,79.74
2023-04-27T02:27:35.222Z,80.05
2023-04-27T02:28:35.227Z,80.43
2023-04-27T02:29:35.206Z,80.36
2023-04-27T02:30:35.204Z,80.78
2023-04-27T02:31:35.254Z,80.05
2023-04-27T02:32:35.188Z,79.95
2023-04-27T02:33:35.183Z,80.36
2023-04-27T02:34:35.171Z,79.81
2023-04-27T02:35:35.159Z,79.85
2023-04-27T02:36:35.186Z,80.05
2023-04-27T02:37:35.165Z,79.74
2023-04-27T02:38:35.153Z,80.47
2023-04-27T02:39:35.133Z,80.12
2023-04-27T02:40:35.272Z,79.81
2023-04-27T02:41:35.116Z,79.85
2023-04-27T02:42:35.119Z,80.05
2023-04-27T02:43:35.106Z,80.16
2023-04-27T02:44:35.094Z,80.26
2023-04-27T02:45:35.082Z,79.74
2023-04-27T02:46:35.110Z,79.95
2023-04-27T02:47:35.106Z,80.26
2023-04-27T02:48:35.055Z,80.47
2023-04-27T02:49:36.709Z,80.05
2023-04-27T02:50:35.035Z,80.47
2023-04-27T02:51:35.050Z,79.85
2023-04-27T02:52:35.055Z,79.95
2023-04-27T02:53:35.010Z,79.74
2023-04-27T02:54:35.003Z,79.47
2023-04-27T02:55:34.996Z,79.88
2023-04-27T02:56:34.992Z,79.68
2023-04-27T02:57:34.994Z,80.40
2023-04-27T02:58:34.987Z,79.99
2023-04-27T02:59:34.987Z,80.51
2023-04-27T03:00:34.968Z,80.82
2023-04-27T03:01:34.996Z,80.40
2023-04-27T03:02:35.140Z,81.23
2023-04-27T03:03:35.125Z,80.92
2023-04-27T03:04:34.966Z,81.23
2023-04-27T03:05:34.924Z,81.23
2023-04-27T03:06:35.785Z,81.34
2023-04-27T03:07:34.914Z,81.68
2023-04-27T03:08:34.914Z,81.34
2023-04-27T03:09:34.942Z,81.44
2023-04-27T03:10:34.890Z,81.44
2023-04-27T03:11:37.204Z,81.34
2023-04-27T03:12:34.880Z,81.23
2023-04-27T03:13:34.872Z,81.34
2023-04-27T03:14:34.868Z,81.44
2023-04-27T03:15:34.852Z,81.09
2023-04-27T03:16:34.905Z,81.34
2023-04-27T03:17:34.852Z,81.65
2023-04-27T03:18:34.850Z,81.30
2023-04-27T03:19:34.824Z,81.30
2023-04-27T03:20:34.817Z,80.78
2023-04-27T03:21:34.844Z,80.78
2023-04-27T03:22:34.803Z,80.88
2023-04-27T03:23:34.808Z,80.99
2023-04-27T03:24:34.778Z,81.09
2023-04-27T03:25:34.779Z,80.68
2023-04-27T03:26:34.763Z,80.88
2023-04-27T03:27:34.760Z,80.47
2023-04-27T03:28:34.756Z,80.99
2023-04-27T03:29:34.746Z,81.20
2023-04-27T03:30:34.738Z,81.40
2023-04-27T03:31:34.761Z,81.40
2023-04-27T03:32:34.752Z,81.30
2023-04-27T03:33:34.715Z,81.26
2023-04-27T03:34:34.715Z,81.37
2023-04-27T03:35:34.696Z,81.09
2023-04-27T03:36:34.703Z,81.40
2023-04-27T03:37:34.690Z,80.99
2023-04-27T03:38:34.686Z,81.30
2023-04-27T03:39:34.673Z,81.40
2023-04-27T03:40:34.662Z,81.44
2023-04-27T03:41:34.664Z,81.54
2023-04-27T03:42:34.640Z,81.85
2023-04-27T03:43:34.641Z,82.37
2023-04-27T03:44:34.653Z,82.37
2023-04-27T03:45:34.624Z,82.68
2023-04-27T03:46:34.905Z,82.89
2023-04-27T03:47:34.682Z,82.79
2023-04-27T03:48:34.604Z,82.79
2023-04-27T03:49:34.590Z,82.68
2023-04-27T03:50:34.613Z,82.34
2023-04-27T03:51:34.593Z,82.34
2023-04-27T03:52:34.580Z,82.44
2023-04-27T03:53:34.571Z,82.23
2023-04-27T03:54:34.598Z,82.13
2023-04-27T03:55:34.538Z,82.23
2023-04-27T03:56:34.548Z,82.58
2023-04-27T03:57:34.540Z,82.79
2023-04-27T03:58:34.543Z,83.20
2023-04-27T03:59:34.518Z,83.31
2023-04-27T04:00:34.518Z,83.76
2023-04-27T04:01:34.500Z,83.83
2023-04-27T04:02:34.546Z,83.93
2023-04-27T04:03:34.569Z,84.17
2023-04-27T04:04:34.635Z,84.48
2023-04-27T04:05:34.471Z,84.80
2023-04-27T04:06:34.465Z,83.97
2023-04-27T04:07:34.455Z,83.76
2023-04-27T04:08:34.467Z,83.55
2023-04-27T04:09:34.504Z,83.97
2023-04-27T04:10:34.442Z,83.86
2023-04-27T04:11:34.429Z,83.14
2023-04-27T04:12:34.429Z,83.14
2023-04-27T04:13:34.412Z,83.34
2023-04-27T04:14:34.417Z,83.45
2023-04-27T04:15:34.471Z,83.14
2023-04-27T04:16:34.390Z,83.24
2023-04-27T04:17:34.439Z,83.20
2023-04-27T04:18:34.383Z,83.24
2023-04-27T04:19:35.334Z,83.45
2023-04-27T04:20:35.322Z,83.20
2023-04-27T04:21:34.357Z,82.93
2023-04-27T04:22:34.373Z,83.14
2023-04-27T04:23:34.358Z,83.31
2023-04-27T04:24:34.346Z,83.20
2023-04-27T04:25:34.342Z,83.20
2023-04-27T04:26:34.334Z,83.20
2023-04-27T04:27:34.320Z,83.00
2023-04-27T04:28:34.316Z,83.10
2023-04-27T04:29:34.305Z,83.10
2023-04-27T04:30:34.297Z,83.10
2023-04-27T04:31:34.321Z,83.00
2023-04-27T04:32:34.284Z,83.00
2023-04-27T04:33:34.260Z,83.31
2023-04-27T04:34:34.256Z,83.72
2023-04-27T04:35:34.297Z,83.20
2023-04-27T04:36:34.238Z,83.00
2023-04-27T04:37:34.232Z,83.10
2023-04-27T04:38:34.219Z,83.20
2023-04-27T04:39:34.222Z,83.00
2023-04-27T04:40:34.242Z,83.00
2023-04-27T04:41:34.809Z,83.10
2023-04-27T04:42:49.971Z,82.79
2023-04-27T04:43:34.186Z,82.58
2023-04-27T04:44:35.162Z,82.95
2023-04-27T04:45:34.194Z,82.68
2023-04-27T04:46:34.199Z,82.68
2023-04-27T04:47:34.198Z,82.44
2023-04-27T04:48:34.180Z,82.65
2023-04-27T04:49:34.142Z,82.75
2023-04-27T04:50:34.889Z,82.48
2023-04-27T04:51:34.124Z,82.75
2023-04-27T04:52:35.893Z,82.34
2023-04-27T04:53:34.113Z,82.23
2023-04-27T04:54:34.108Z,82.23
2023-04-27T04:55:35.100Z,82.54
2023-04-27T04:56:34.071Z,82.34
2023-04-27T04:57:34.102Z,82.34
2023-04-27T04:58:34.070Z,81.92
2023-04-27T04:59:34.079Z,81.68
2023-04-27T05:00:34.063Z,81.16
2023-04-27T05:01:34.100Z,81.37
2023-04-27T05:02:34.985Z,81.37
2023-04-27T05:03:34.220Z,80.64
2023-04-27T05:04:34.142Z,80.22
2023-04-27T05:05:34.438Z,79.91
2023-04-27T05:06:35.898Z,80.19
2023-04-27T05:07:34.032Z,79.84
2023-04-27T05:08:34.013Z,79.33
2023-04-27T05:09:34.880Z,78.81
2023-04-27T05:10:33.991Z,78.05
2023-04-27T05:11:33.980Z,77.22
2023-04-27T05:12:33.958Z,77.70
2023-04-27T05:14:41.358Z,76.67
2023-04-27T05:15:43.244Z,76.05
2023-04-27T05:16:44.300Z,76.26
2023-04-27T05:17:43.244Z,76.50
2023-04-27T05:18:42.430Z,76.26
2023-04-27T05:19:42.415Z,76.29
2023-04-27T05:20:42.409Z,76.29
2023-04-27T05:21:42.393Z,75.78
2023-04-27T05:22:42.407Z,77.01
2023-04-27T05:23:42.420Z,76.91
2023-04-27T05:24:42.393Z,76.50
2023-04-27T05:25:42.437Z,76.12
2023-04-27T05:26:42.374Z,76.39
2023-04-27T05:27:43.151Z,76.39
2023-04-27T05:28:42.341Z,75.88
2023-04-27T05:29:42.376Z,76.09
2023-04-27T05:30:42.344Z,75.98
2023-04-27T05:31:42.316Z,76.18
2023-04-27T05:32:42.368Z,76.36
2023-04-27T05:33:42.296Z,75.74
2023-04-27T05:34:42.303Z,75.22
2023-04-27T05:35:42.336Z,75.49
2023-04-27T05:36:42.279Z,75.70
2023-04-27T05:37:43.275Z,75.26
2023-04-27T05:38:42.260Z,75.05
2023-04-27T05:39:42.308Z,74.71
2023-04-27T05:40:42.258Z,73.64
2023-04-27T05:41:42.423Z,71.62
2023-04-27T05:42:42.224Z,69.18
2023-04-27T05:43:42.232Z,67.48
2023-04-27T05:44:42.250Z,65.63
2023-04-27T05:45:42.243Z,65.83
2023-04-27T05:46:42.208Z,65.83
2023-04-27T05:47:42.246Z,66.28
2023-04-27T05:48:42.179Z,66.14
2023-04-27T05:49:42.200Z,65.63
2023-04-27T05:50:42.194Z,65.29
2023-04-27T05:51:42.662Z,64.03
2023-04-27T05:52:42.192Z,63.25
2023-04-27T05:53:42.180Z,62.07
2023-04-27T05:54:43.732Z,59.83
2023-04-27T05:55:42.155Z,58.45
2023-04-27T05:56:42.186Z,56.99
2023-04-27T05:57:42.165Z,57.27
2023-04-27T05:58:42.170Z,55.82
2023-04-27T05:59:42.090Z,55.69
2023-04-27T06:00:42.098Z,54.33
2023-04-27T06:01:42.160Z,54.64
2023-04-27T06:02:42.217Z,55.48
2023-04-27T06:03:42.213Z,54.90
2023-04-27T06:04:42.086Z,55.58
2023-04-27T06:05:42.104Z,55.63
2023-04-27T06:06:42.058Z,53.98
2023-04-27T06:07:42.791Z,52.50
2023-04-27T06:08:43.748Z,51.92
2023-04-27T06:09:42.014Z,51.46
2023-04-27T06:10:42.020Z,49.19
2023-04-27T06:11:42.685Z,47.72
2023-04-27T06:12:42.753Z,47.42
2023-04-27T06:13:42.011Z,46.02
2023-04-27T06:14:42.037Z,48.50
2023-04-27T06:15:42.109Z,49.41
2023-04-27T06:16:41.962Z,49.16
2023-04-27T06:17:41.998Z,49.48
2023-04-27T06:18:41.965Z,49.36
2023-04-27T06:19:41.984Z,49.56
2023-04-27T06:20:45.003Z,49.91
2023-04-27T06:21:41.932Z,50.50
2023-04-27T06:22:43.669Z,49.28
2023-04-27T06:23:42.140Z,49.08
2023-04-27T06:24:42.902Z,49.79
2023-04-27T06:25:43.675Z,49.23
2023-04-27T06:26:43.710Z,48.72
2023-04-27T06:27:41.908Z,48.85
2023-04-27T06:28:41.872Z,49.46
2023-04-27T06:29:41.882Z,49.26
2023-04-27T06:30:41.874Z,47.63
2023-04-27T06:31:42.747Z,47.63
2023-04-27T06:32:42.849Z,47.51
2023-04-27T06:33:41.859Z,46.01
2023-04-27T06:34:41.842Z,47.45
2023-04-27T06:35:42.701Z,47.78
2023-04-27T06:36:41.802Z,48.31
2023-04-27T06:37:41.813Z,49.27
2023-04-27T06:38:41.814Z,49.88
2023-04-27T06:39:41.814Z,50.36
2023-04-27T06:40:41.794Z,50.38
2023-04-27T06:41:41.823Z,51.65
2023-04-27T06:42:41.793Z,52.62
2023-04-27T06:43:41.789Z,53.08
2023-04-27T06:44:41.754Z,54.67
2023-04-27T06:45:41.801Z,56.02
2023-04-27T06:46:41.806Z,56.23
2023-04-27T06:47:41.797Z,55.85
2023-04-27T06:48:41.718Z,56.79
2023-04-27T06:49:41.728Z,57.31
2023-04-27T06:50:42.003Z,57.51
2023-04-27T06:51:41.703Z,57.23
2023-04-27T06:52:41.699Z,58.31
2023-04-27T06:53:43.179Z,58.51
2023-04-27T06:54:41.675Z,60.05
2023-04-27T06:55:43.861Z,57.59
2023-04-27T06:56:42.661Z,60.08
2023-04-27T06:57:41.646Z,59.06
2023-04-27T06:58:41.637Z,59.06
2023-04-27T06:59:41.637Z,58.03
2023-04-27T07:00:41.619Z,58.75
2023-04-27T07:01:41.745Z,57.62
2023-04-27T07:02:41.680Z,57.62
2023-04-27T07:03:41.888Z,58.64
2023-04-27T07:04:43.339Z,57.82
2023-04-27T07:05:41.578Z,58.34
2023-04-27T07:06:41.578Z,57.21
2023-04-27T07:07:41.557Z,58.41
2023-04-27T07:08:41.563Z,57.31
2023-04-27T07:09:41.555Z,58.34
2023-04-27T07:10:41.541Z,56.92
2023-04-27T07:11:41.535Z,56.28
2023-04-27T07:12:41.551Z,55.77
2023-04-27T07:13:41.524Z,55.13
2023-04-27T07:14:41.517Z,54.18
2023-04-27T07:15:41.527Z,54.95
2023-04-27T07:16:41.531Z,56.00
2023-04-27T07:17:41.588Z,56.71
2023-04-27T07:18:43.297Z,56.38
2023-04-27T07:19:42.492Z,56.00
2023-04-27T07:20:41.479Z,53.90
2023-04-27T07:21:44.283Z,52.95
2023-04-27T07:22:41.442Z,52.62
2023-04-27T07:23:41.467Z,52.67
2023-04-27T07:24:41.434Z,51.30
2023-04-27T07:25:41.426Z,49.26
2023-04-27T07:26:41.418Z,51.53
2023-04-27T07:27:42.219Z,51.68
2023-04-27T07:28:41.422Z,52.52
2023-04-27T07:29:41.386Z,53.42
2023-04-27T07:30:41.384Z,52.50
2023-04-27T07:31:41.507Z,52.62
2023-04-27T07:32:41.396Z,50.64
2023-04-27T07:33:41.461Z,50.03
2023-04-27T07:34:52.592Z,49.93
2023-04-27T07:35:43.378Z,50.13
2023-04-27T07:36:41.373Z,49.05
2023-04-27T07:37:42.360Z,51.20
2023-04-27T07:38:41.335Z,51.53
2023-04-27T07:39:41.291Z,51.73
2023-04-27T07:40:44.338Z,50.36
2023-04-27T07:41:41.320Z,49.52
2023-04-27T07:42:41.300Z,49.54
2023-04-27T07:43:41.275Z,48.52
2023-04-27T07:44:41.270Z,48.91
2023-04-27T07:45:41.398Z,49.09
2023-04-27T07:46:41.261Z,48.56
2023-04-27T07:47:41.282Z,48.03
2023-04-27T07:48:41.240Z,47.50
2023-04-27T07:49:41.250Z,46.66
2023-04-27T07:50:41.223Z,45.64
2023-04-27T07:51:41.218Z,47.11
2023-04-27T07:52:41.238Z,46.93
2023-04-27T07:53:41.202Z,48.11
2023-04-27T07:54:41.192Z,49.24
2023-04-27T07:55:41.183Z,48.52
2023-04-27T07:56:41.171Z,47.91
2023-04-27T07:57:41.700Z,47.49
2023-04-27T07:58:41.165Z,46.61
2023-04-27T07:59:41.162Z,48.73
2023-04-27T08:00:41.146Z,47.63
2023-04-27T08:01:41.175Z,48.75
2023-04-27T08:02:41.269Z,48.90
2023-04-27T08:03:41.400Z,47.45
2023-04-27T08:04:41.279Z,46.94
2023-04-27T08:05:41.392Z,49.51
2023-04-27T08:06:42.211Z,48.26
2023-04-27T08:07:44.375Z,46.25
2023-04-27T08:08:42.102Z,48.06
2023-04-27T08:09:41.084Z,46.94
2023-04-27T08:10:41.055Z,43.88
2023-04-27T08:11:41.077Z,45.84
2023-04-27T08:12:41.078Z,45.02
2023-04-27T08:13:41.037Z,44.92
2023-04-27T08:14:41.035Z,46.14
2023-04-27T08:15:41.020Z,45.12
2023-04-27T08:16:41.058Z,45.92
2023-04-27T08:17:41.176Z,46.25
2023-04-27T08:18:41.003Z,46.43
2023-04-27T08:19:41.006Z,44.41
2023-04-27T08:20:40.994Z,45.53
2023-04-27T08:21:43.793Z,47.27
2023-04-27T08:22:40.968Z,48.28
2023-04-27T08:23:40.969Z,47.67
2023-04-27T08:25:47.533Z,47.27
2023-04-27T08:26:48.612Z,46.73
2023-04-27T08:27:48.613Z,46.92
2023-04-27T08:28:48.601Z,46.20
2023-04-27T08:29:48.583Z,46.38
2023-04-27T08:30:48.587Z,45.28
2023-04-27T08:31:48.748Z,46.41
2023-04-27T08:32:48.621Z,45.98
2023-04-27T08:33:48.562Z,46.18
2023-04-27T08:34:48.575Z,46.30
2023-04-27T08:35:48.530Z,46.94
2023-04-27T08:36:48.525Z,46.92
2023-04-27T08:37:48.524Z,46.53
2023-04-27T08:38:48.523Z,47.42
2023-04-27T08:39:49.208Z,46.61
2023-04-27T08:40:48.497Z,46.47
2023-04-27T08:41:48.508Z,45.83
2023-04-27T08:42:48.485Z,45.22
2023-04-27T08:43:48.469Z,45.53
2023-04-27T08:44:48.472Z,45.32
2023-04-27T08:45:48.458Z,45.53
2023-04-27T08:46:48.631Z,46.08
2023-04-27T08:47:48.496Z,46.51
2023-04-27T08:48:48.446Z,46.61
2023-04-27T08:49:49.451Z,46.81
2023-04-27T08:50:48.425Z,46.79
2023-04-27T08:51:48.433Z,46.69
2023-04-27T08:52:49.277Z,47.00
2023-04-27T08:53:48.395Z,46.81
2023-04-27T08:54:48.389Z,47.86
2023-04-27T08:55:49.208Z,47.96
2023-04-27T08:56:48.405Z,47.96
2023-04-27T08:57:48.382Z,48.14
2023-04-27T08:58:49.181Z,47.40
2023-04-27T08:59:48.339Z,46.56
2023-04-27T09:00:49.067Z,46.44
2023-04-27T09:01:48.488Z,46.36
2023-04-27T09:02:48.588Z,45.85
2023-04-27T09:03:49.478Z,46.26
2023-04-27T09:04:50.361Z,45.45
2023-04-27T09:06:02.979Z,46.26
2023-04-27T09:06:50.302Z,45.67
2023-04-27T09:07:48.279Z,45.39
2023-04-27T09:08:48.312Z,46.92
2023-04-27T09:09:48.298Z,46.51
2023-04-27T09:10:48.285Z,47.42
2023-04-27T09:11:48.245Z,46.59
2023-04-27T09:12:48.245Z,47.22
2023-04-27T09:13:48.257Z,46.81
2023-04-27T09:14:48.219Z,46.81
2023-04-27T09:15:48.683Z,45.98
2023-04-27T09:16:49.255Z,45.87
2023-04-27T09:17:50.804Z,46.36
2023-04-27T09:18:48.202Z,46.47
2023-04-27T09:19:48.751Z,45.45
2023-04-27T09:20:49.193Z,45.36
2023-04-27T09:21:48.172Z,45.57
2023-04-27T09:22:48.151Z,46.10
2023-04-27T09:23:48.184Z,46.20
2023-04-27T09:24:48.154Z,46.71
2023-04-27T09:25:48.135Z,46.38
2023-04-27T09:26:48.117Z,46.06
2023-04-27T09:27:48.115Z,45.45
2023-04-27T09:28:48.144Z,44.93
2023-04-27T09:29:48.107Z,45.53
2023-04-27T09:30:48.082Z,45.12
2023-04-27T09:31:48.116Z,44.92
2023-04-27T09:32:48.095Z,45.53
2023-04-27T09:33:48.089Z,45.54
2023-04-27T09:34:48.135Z,45.14
2023-04-27T09:35:48.059Z,45.32
2023-04-27T09:36:48.780Z,45.42
2023-04-27T09:37:49.685Z,44.00
2023-04-27T09:38:48.027Z,44.18
2023-04-27T09:39:48.049Z,44.46
2023-04-27T09:40:48.185Z,44.14
2023-04-27T09:41:48.218Z,43.53
2023-04-27T09:42:48.039Z,43.81
2023-04-27T09:43:47.987Z,42.90
2023-04-27T09:44:47.999Z,42.68
2023-04-27T09:45:48.011Z,41.68
2023-04-27T09:46:47.960Z,42.51
2023-04-27T09:47:48.001Z,43.32
2023-04-27T09:48:47.945Z,43.53
2023-04-27T09:49:47.962Z,43.24
2023-04-27T09:50:50.777Z,43.38
2023-04-27T09:51:47.942Z,43.59
2023-04-27T09:52:47.942Z,44.38
2023-04-27T09:53:47.923Z,43.04
2023-04-27T09:54:47.901Z,43.24
2023-04-27T09:55:49.513Z,43.93
2023-04-27T09:56:48.733Z,43.91
2023-04-27T09:57:47.931Z,43.69
2023-04-27T09:58:47.881Z,42.05
2023-04-27T09:59:47.876Z,41.64
2023-04-27T10:00:47.871Z,40.95
2023-04-27T10:01:47.889Z,41.35
2023-04-27T10:02:53.030Z,41.27
2023-04-27T10:03:49.913Z,41.66
2023-04-27T10:04:48.713Z,40.95
2023-04-27T10:05:48.780Z,41.25
2023-04-27T10:06:47.851Z,41.25
2023-04-27T10:07:47.805Z,41.35
2023-04-27T10:08:47.796Z,40.52
2023-04-27T10:09:47.796Z,40.72
2023-04-27T10:10:47.789Z,40.70
2023-04-27T10:11:47.771Z,39.87
2023-04-27T10:12:47.789Z,39.98
2023-04-27T10:13:47.784Z,40.47
2023-04-27T10:14:47.741Z,39.57
2023-04-27T10:15:47.726Z,40.28
2023-04-27T10:16:47.794Z,39.55
2023-04-27T10:17:47.772Z,40.38
2023-04-27T10:18:47.728Z,39.75
2023-04-27T10:19:47.706Z,39.96
2023-04-27T10:20:47.698Z,38.95
2023-04-27T10:21:47.683Z,39.96
2023-04-27T10:22:47.690Z,40.16
2023-04-27T10:23:47.705Z,40.77
2023-04-27T10:24:47.688Z,40.26
2023-04-27T10:25:47.677Z,39.06
2023-04-27T10:26:48.225Z,38.82
2023-04-27T10:27:47.630Z,40.04
2023-04-27T10:28:47.630Z,38.91
2023-04-27T10:29:47.635Z,38.89
2023-04-27T10:30:47.669Z,38.99
2023-04-27T10:31:47.751Z,39.07
2023-04-27T10:32:47.633Z,38.99
2023-04-27T10:33:47.591Z,38.46
2023-04-27T10:34:47.611Z,38.65
2023-04-27T10:35:47.584Z,38.10
2023-04-27T10:36:47.578Z,38.95
2023-04-27T10:37:47.563Z,39.37
2023-04-27T10:38:47.554Z,39.17
2023-04-27T10:39:49.616Z,39.69
2023-04-27T10:40:49.286Z,40.70
2023-04-27T10:41:47.537Z,40.70
2023-04-27T10:42:47.527Z,39.59
2023-04-27T10:43:47.538Z,40.30
2023-04-27T10:44:47.508Z,40.00
2023-04-27T10:45:47.553Z,39.69
2023-04-27T10:46:47.499Z,39.39
2023-04-27T10:47:47.522Z,39.78
2023-04-27T10:48:47.493Z,40.08
2023-04-27T10:49:47.482Z,39.87
2023-04-27T10:50:47.470Z,39.78
2023-04-27T10:51:47.467Z,41.21
2023-04-27T10:52:47.442Z,41.11
2023-04-27T10:53:47.436Z,41.11
2023-04-27T10:54:47.449Z,41.42
2023-04-27T10:55:47.445Z,41.44
2023-04-27T10:56:48.319Z,41.35
2023-04-27T10:57:47.405Z,41.15
2023-04-27T10:58:50.232Z,41.25
2023-04-27T10:59:49.321Z,41.25
2023-04-27T11:00:47.420Z,41.33
2023-04-27T11:01:48.346Z,41.15
2023-04-27T11:02:47.507Z,41.44
2023-04-27T11:03:49.348Z,41.25
2023-04-27T11:04:47.402Z,41.25
2023-04-27T11:05:48.262Z,41.66
2023-04-27T11:06:47.365Z,42.39
2023-04-27T11:07:47.326Z,42.90
2023-04-27T11:08:47.329Z,43.81
2023-04-27T11:09:47.307Z,42.39
2023-04-27T11:10:47.311Z,42.13
2023-04-27T11:11:47.312Z,43.35
2023-04-27T11:12:47.283Z,43.75
2023-04-27T11:13:47.281Z,43.44
2023-04-27T11:14:47.269Z,43.55
2023-04-27T11:15:47.400Z,43.57
2023-04-27T11:16:47.340Z,43.18
2023-04-27T11:17:47.292Z,43.79
2023-04-27T11:18:47.278Z,45.32
2023-04-27T11:19:47.225Z,44.63
2023-04-27T11:20:47.238Z,44.71
2023-04-27T11:21:47.223Z,44.40
2023-04-27T11:22:47.212Z,44.00
2023-04-27T11:23:47.202Z,44.40
2023-04-27T11:24:47.207Z,44.59
2023-04-27T11:25:47.174Z,44.18
2023-04-27T11:26:49.802Z,44.20
2023-04-27T11:27:47.173Z,43.90
2023-04-27T11:28:47.176Z,44.61
2023-04-27T11:29:47.144Z,44.69
2023-04-27T11:30:47.142Z,43.69
2023-04-27T11:31:47.206Z,43.18
2023-04-27T11:32:47.161Z,44.00
2023-04-27T11:33:47.118Z,44.40
2023-04-27T11:34:47.131Z,44.32
2023-04-27T11:35:47.123Z,44.12
2023-04-27T11:36:47.802Z,44.61
2023-04-27T11:37:47.097Z,44.61
2023-04-27T11:38:47.145Z,43.37
2023-04-27T11:39:47.070Z,43.65
2023-04-27T11:40:47.054Z,43.55
2023-04-27T11:41:47.082Z,43.84
2023-04-27T11:42:47.057Z,43.43
2023-04-27T11:43:47.046Z,43.30
2023-04-27T11:44:47.048Z,41.64
2023-04-27T11:45:49.828Z,40.93
2023-04-27T11:46:48.025Z,41.21
2023-04-27T11:47:47.067Z,41.21
2023-04-27T11:48:46.992Z,40.91
2023-04-27T11:49:47.013Z,40.50
2023-04-27T11:50:47.021Z,40.81
2023-04-27T11:51:47.756Z,41.13
2023-04-27T11:52:47.279Z,41.13
2023-04-27T11:53:46.988Z,41.13
2023-04-27T11:54:46.973Z,41.42
2023-04-27T11:55:46.954Z,41.11
2023-04-27T11:56:46.941Z,41.21
2023-04-27T11:57:46.939Z,41.40
2023-04-27T11:58:46.949Z,40.18
2023-04-27T11:59:46.914Z,39.67
2023-04-27T12:00:46.903Z,40.40
2023-04-27T12:01:46.934Z,39.78
2023-04-27T12:02:47.023Z,39.59
2023-04-27T12:03:47.980Z,39.98
2023-04-27T12:04:46.950Z,39.75
2023-04-27T12:05:46.939Z,39.75
2023-04-27T12:06:46.851Z,40.16
2023-04-27T12:07:46.834Z,39.86
2023-04-27T12:08:46.848Z,38.93
2023-04-27T12:09:48.773Z,38.84
2023-04-27T12:10:46.833Z,39.15
2023-04-27T12:11:46.837Z,39.25
2023-04-27T12:12:46.802Z,39.75
2023-04-27T12:13:46.788Z,39.86
2023-04-27T12:14:46.778Z,40.16
2023-04-27T12:15:46.788Z,39.87
2023-04-27T12:16:46.825Z,40.20
2023-04-27T12:17:46.807Z,40.62
2023-04-27T12:18:46.761Z,40.01
2023-04-27T12:19:46.738Z,39.30
2023-04-27T12:20:46.768Z,40.20
2023-04-27T12:21:46.750Z,40.09
2023-04-27T12:22:48.368Z,39.91
2023-04-27T12:23:46.728Z,39.71
2023-04-27T12:24:46.707Z,40.03
2023-04-27T12:25:46.837Z,39.62
2023-04-27T12:26:46.711Z,40.52
2023-04-27T12:27:46.685Z,40.30
2023-04-27T12:28:46.668Z,40.61
2023-04-27T12:29:46.662Z,39.69
2023-04-27T12:30:46.673Z,40.32
2023-04-27T12:31:46.663Z,39.59
2023-04-27T12:32:46.732Z,39.69
2023-04-27T12:33:46.633Z,39.59
2023-04-27T12:34:46.627Z,40.08
2023-04-27T12:35:46.638Z,40.36
2023-04-27T12:36:46.621Z,39.57
2023-04-27T12:37:46.643Z,40.47
2023-04-27T12:38:46.608Z,38.95
2023-04-27T12:39:46.586Z,39.45
2023-04-27T12:40:46.577Z,38.96
2023-04-27T12:41:46.600Z,39.57
2023-04-27T12:42:46.579Z,39.26
2023-04-27T12:43:46.575Z,39.15
2023-04-27T12:44:46.552Z,39.15
2023-04-27T12:45:46.535Z,39.33
2023-04-27T12:46:46.674Z,37.99
2023-04-27T12:48:01.726Z,37.59
2023-04-27T12:48:48.664Z,38.48
2023-04-27T12:49:46.514Z,36.87
2023-04-27T12:50:46.506Z,37.37
2023-04-27T12:51:46.495Z,38.08
2023-04-27T12:52:46.499Z,38.46
2023-04-27T12:53:47.328Z,38.26
2023-04-27T12:54:47.327Z,37.45
2023-04-27T12:55:46.460Z,37.15